sensor_id;sensor_type;location;lat;lon;timestamp;temperature;humidity
43995;DHT22;51687;52.160;5.298;2023-02-01T00:00:26;10.60;54.90
43995;DHT22;51687;52.160;5.298;2023-02-01T00:02:53;10.70;54.80
43995;DHT22;51687;52.160;5.298;2023-02-01T00:05:20;10.70;54.90
43995;DHT22;51687;52.160;5.298;2023-02-01T00:07:47;10.70;54.90
43995;DHT22;51687;52.160;5.298;2023-02-01T00:10:15;10.70;55.00
43995;DHT22;51687;52.160;5.298;2023-02-01T00:12:43;10.70;55.00
43995;DHT22;51687;52.160;5.298;2023-02-01T00:15:10;10.70;55.10
43995;DHT22;51687;52.160;5.298;2023-02-01T00:17:37;10.70;55.30
43995;DHT22;51687;52.160;5.298;2023-02-01T00:20:05;10.70;55.20
43995;DHT22;51687;52.160;5.298;2023-02-01T00:22:32;10.70;55.50
43995;DHT22;51687;52.160;5.298;2023-02-01T00:24:59;10.70;55.50
43995;DHT22;51687;52.160;5.298;2023-02-01T00:27:25;10.70;55.50
43995;DHT22;51687;52.160;5.298;2023-02-01T00:29:54;10.70;55.70
43995;DHT22;51687;52.160;5.298;2023-02-01T00:32:21;10.70;55.80
43995;DHT22;51687;52.160;5.298;2023-02-01T00:34:48;10.70;56.30
43995;DHT22;51687;52.160;5.298;2023-02-01T00:37:15;10.80;55.70
43995;DHT22;51687;52.160;5.298;2023-02-01T00:39:41;10.80;55.80
43995;DHT22;51687;52.160;5.298;2023-02-01T00:42:08;10.80;55.90
43995;DHT22;51687;52.160;5.298;2023-02-01T00:44:36;10.80;55.70
43995;DHT22;51687;52.160;5.298;2023-02-01T00:47:03;10.80;55.70
43995;DHT22;51687;52.160;5.298;2023-02-01T00:49:29;10.80;56.00
43995;DHT22;51687;52.160;5.298;2023-02-01T00:51:56;10.80;55.80
43995;DHT22;51687;52.160;5.298;2023-02-01T00:54:23;10.80;55.90
43995;DHT22;51687;52.160;5.298;2023-02-01T00:56:49;10.80;55.80
43995;DHT22;51687;52.160;5.298;2023-02-01T00:59:16;10.80;55.80
43995;DHT22;51687;52.160;5.298;2023-02-01T01:01:43;10.90;55.80
43995;DHT22;51687;52.160;5.298;2023-02-01T01:04:10;10.90;55.70
43995;DHT22;51687;52.160;5.298;2023-02-01T01:06:37;11.00;55.70
43995;DHT22;51687;52.160;5.298;2023-02-01T01:09:06;11.00;55.70
43995;DHT22;51687;52.160;5.298;2023-02-01T01:11:36;11.00;55.50
43995;DHT22;51687;52.160;5.298;2023-02-01T01:14:04;11.00;55.40
43995;DHT22;51687;52.160;5.298;2023-02-01T01:16:32;11.00;55.40
43995;DHT22;51687;52.160;5.298;2023-02-01T01:19:00;10.90;55.10
43995;DHT22;51687;52.160;5.298;2023-02-01T01:21:27;10.90;55.20
43995;DHT22;51687;52.160;5.298;2023-02-01T01:23:54;10.90;55.20
43995;DHT22;51687;52.160;5.298;2023-02-01T01:26:24;10.90;55.10
43995;DHT22;51687;52.160;5.298;2023-02-01T01:28:52;10.90;55.10
43995;DHT22;51687;52.160;5.298;2023-02-01T01:31:20;10.90;55.10
43995;DHT22;51687;52.160;5.298;2023-02-01T01:33:49;11.00;55.40
43995;DHT22;51687;52.160;5.298;2023-02-01T01:36:16;11.00;55.00
43995;DHT22;51687;52.160;5.298;2023-02-01T01:38:43;11.00;54.90
43995;DHT22;51687;52.160;5.298;2023-02-01T01:41:14;11.00;54.80
43995;DHT22;51687;52.160;5.298;2023-02-01T01:43:53;11.00;55.00
43995;DHT22;51687;52.160;5.298;2023-02-01T01:46:21;11.00;55.40
43995;DHT22;51687;52.160;5.298;2023-02-01T01:49:08;11.10;55.40
43995;DHT22;51687;52.160;5.298;2023-02-01T01:51:47;11.10;54.90
43995;DHT22;51687;52.160;5.298;2023-02-01T01:55:01;11.10;54.80
43995;DHT22;51687;52.160;5.298;2023-02-01T01:57:33;11.10;54.40
43995;DHT22;51687;52.160;5.298;2023-02-01T02:00:08;11.10;54.40
43995;DHT22;51687;52.160;5.298;2023-02-01T02:02:36;11.20;54.40
43995;DHT22;51687;52.160;5.298;2023-02-01T02:05:04;11.20;54.30
43995;DHT22;51687;52.160;5.298;2023-02-01T02:07:35;11.20;55.20
43995;DHT22;51687;52.160;5.298;2023-02-01T02:10:04;11.30;55.00
43995;DHT22;51687;52.160;5.298;2023-02-01T02:12:32;11.30;54.70
43995;DHT22;51687;52.160;5.298;2023-02-01T02:14:59;11.30;54.60
43995;DHT22;51687;52.160;5.298;2023-02-01T02:17:58;11.30;55.30
43995;DHT22;51687;52.160;5.298;2023-02-01T02:20:45;11.30;55.70
43995;DHT22;51687;52.160;5.298;2023-02-01T02:23:40;11.30;55.00
43995;DHT22;51687;52.160;5.298;2023-02-01T02:26:34;11.30;55.10
43995;DHT22;51687;52.160;5.298;2023-02-01T02:32:32;11.30;55.30
43995;DHT22;51687;52.160;5.298;2023-02-01T02:34:57;11.40;55.30
43995;DHT22;51687;52.160;5.298;2023-02-01T02:43:10;11.40;55.60
43995;DHT22;51687;52.160;5.298;2023-02-01T02:46:02;11.40;55.80
43995;DHT22;51687;52.160;5.298;2023-02-01T02:51:32;11.40;55.30
43995;DHT22;51687;52.160;5.298;2023-02-01T02:54:26;11.50;55.70
43995;DHT22;51687;52.160;5.298;2023-02-01T02:57:24;11.50;55.40
43995;DHT22;51687;52.160;5.298;2023-02-01T03:00:15;11.50;55.50
43995;DHT22;51687;52.160;5.298;2023-02-01T03:03:01;11.50;55.40
43995;DHT22;51687;52.160;5.298;2023-02-01T03:05:49;11.50;55.60
43995;DHT22;51687;52.160;5.298;2023-02-01T03:08:23;11.50;55.10
43995;DHT22;51687;52.160;5.298;2023-02-01T03:11:00;11.50;54.90
43995;DHT22;51687;52.160;5.298;2023-02-01T03:16:42;11.40;55.40
43995;DHT22;51687;52.160;5.298;2023-02-01T03:19:37;11.40;55.70
43995;DHT22;51687;52.160;5.298;2023-02-01T03:22:13;11.40;54.90
43995;DHT22;51687;52.160;5.298;2023-02-01T03:24:54;11.40;55.40
43995;DHT22;51687;52.160;5.298;2023-02-01T03:27:31;11.50;55.70
43995;DHT22;51687;52.160;5.298;2023-02-01T03:30:12;11.60;54.80
43995;DHT22;51687;52.160;5.298;2023-02-01T03:32:46;11.60;54.50
43995;DHT22;51687;52.160;5.298;2023-02-01T03:40:41;11.50;54.60
43995;DHT22;51687;52.160;5.298;2023-02-01T03:43:11;11.60;54.60
43995;DHT22;51687;52.160;5.298;2023-02-01T03:45:44;11.60;55.00
43995;DHT22;51687;52.160;5.298;2023-02-01T03:48:13;11.60;54.50
43995;DHT22;51687;52.160;5.298;2023-02-01T03:50:46;11.60;54.30
43995;DHT22;51687;52.160;5.298;2023-02-01T03:53:16;11.50;54.40
43995;DHT22;51687;52.160;5.298;2023-02-01T03:55:44;11.50;54.70
43995;DHT22;51687;52.160;5.298;2023-02-01T03:58:12;11.50;55.10
43995;DHT22;51687;52.160;5.298;2023-02-01T04:00:40;11.50;54.90
43995;DHT22;51687;52.160;5.298;2023-02-01T04:03:11;11.60;54.90
43995;DHT22;51687;52.160;5.298;2023-02-01T04:05:38;11.60;54.70
43995;DHT22;51687;52.160;5.298;2023-02-01T04:08:04;11.50;54.50
43995;DHT22;51687;52.160;5.298;2023-02-01T04:10:31;11.40;54.80
43995;DHT22;51687;52.160;5.298;2023-02-01T04:12:58;11.40;55.80
43995;DHT22;51687;52.160;5.298;2023-02-01T04:15:25;11.50;55.50
43995;DHT22;51687;52.160;5.298;2023-02-01T04:17:52;11.50;54.80
43995;DHT22;51687;52.160;5.298;2023-02-01T04:20:18;11.40;54.40
43995;DHT22;51687;52.160;5.298;2023-02-01T04:22:46;11.40;55.40
43995;DHT22;51687;52.160;5.298;2023-02-01T04:25:13;11.40;55.50
43995;DHT22;51687;52.160;5.298;2023-02-01T04:27:39;11.50;54.70
43995;DHT22;51687;52.160;5.298;2023-02-01T04:30:05;11.50;54.40
43995;DHT22;51687;52.160;5.298;2023-02-01T04:32:37;11.50;54.90
43995;DHT22;51687;52.160;5.298;2023-02-01T04:35:04;11.60;54.60
43995;DHT22;51687;52.160;5.298;2023-02-01T04:37:31;11.60;54.70
43995;DHT22;51687;52.160;5.298;2023-02-01T04:39:58;11.60;54.40
43995;DHT22;51687;52.160;5.298;2023-02-01T04:42:25;11.50;55.10
43995;DHT22;51687;52.160;5.298;2023-02-01T04:44:52;11.60;54.80
43995;DHT22;51687;52.160;5.298;2023-02-01T04:47:18;11.60;55.40
43995;DHT22;51687;52.160;5.298;2023-02-01T04:49:46;11.60;56.20
43995;DHT22;51687;52.160;5.298;2023-02-01T04:52:13;11.70;57.10
43995;DHT22;51687;52.160;5.298;2023-02-01T04:54:39;11.80;55.10
43995;DHT22;51687;52.160;5.298;2023-02-01T04:57:06;11.80;54.90
43995;DHT22;51687;52.160;5.298;2023-02-01T04:59:33;11.80;54.70
43995;DHT22;51687;52.160;5.298;2023-02-01T05:02:00;11.80;54.40
43995;DHT22;51687;52.160;5.298;2023-02-01T05:04:29;11.80;54.60
43995;DHT22;51687;52.160;5.298;2023-02-01T05:06:56;11.80;54.20
43995;DHT22;51687;52.160;5.298;2023-02-01T05:09:23;11.70;54.70
43995;DHT22;51687;52.160;5.298;2023-02-01T05:11:50;11.70;54.50
43995;DHT22;51687;52.160;5.298;2023-02-01T05:14:35;11.60;54.60
43995;DHT22;51687;52.160;5.298;2023-02-01T05:17:01;11.60;54.50
43995;DHT22;51687;52.160;5.298;2023-02-01T05:19:28;11.60;55.40
43995;DHT22;51687;52.160;5.298;2023-02-01T05:21:55;11.60;55.50
43995;DHT22;51687;52.160;5.298;2023-02-01T05:24:22;11.60;54.80
43995;DHT22;51687;52.160;5.298;2023-02-01T05:26:49;11.70;55.70
43995;DHT22;51687;52.160;5.298;2023-02-01T05:29:16;11.60;54.70
43995;DHT22;51687;52.160;5.298;2023-02-01T05:31:47;11.60;54.80
43995;DHT22;51687;52.160;5.298;2023-02-01T05:34:14;11.50;54.70
43995;DHT22;51687;52.160;5.298;2023-02-01T05:36:41;11.50;55.10
43995;DHT22;51687;52.160;5.298;2023-02-01T05:39:08;11.50;55.10
43995;DHT22;51687;52.160;5.298;2023-02-01T05:41:35;11.50;55.10
43995;DHT22;51687;52.160;5.298;2023-02-01T05:44:02;11.40;55.10
43995;DHT22;51687;52.160;5.298;2023-02-01T05:46:29;11.40;55.20
43995;DHT22;51687;52.160;5.298;2023-02-01T05:48:56;11.40;55.60
43995;DHT22;51687;52.160;5.298;2023-02-01T05:51:22;11.40;56.60
43995;DHT22;51687;52.160;5.298;2023-02-01T05:53:49;11.40;56.20
43995;DHT22;51687;52.160;5.298;2023-02-01T05:56:16;11.50;56.50
43995;DHT22;51687;52.160;5.298;2023-02-01T05:58:43;11.50;56.40
43995;DHT22;51687;52.160;5.298;2023-02-01T06:01:10;11.60;55.50
43995;DHT22;51687;52.160;5.298;2023-02-01T06:03:37;11.60;55.80
43995;DHT22;51687;52.160;5.298;2023-02-01T06:06:05;11.50;55.40
43995;DHT22;51687;52.160;5.298;2023-02-01T06:08:32;11.50;55.40
43995;DHT22;51687;52.160;5.298;2023-02-01T06:11:04;11.50;55.60
43995;DHT22;51687;52.160;5.298;2023-02-01T06:13:31;11.50;56.50
43995;DHT22;51687;52.160;5.298;2023-02-01T06:16:01;11.50;55.80
43995;DHT22;51687;52.160;5.298;2023-02-01T06:18:28;11.50;55.90
43995;DHT22;51687;52.160;5.298;2023-02-01T06:20:58;11.50;55.90
43995;DHT22;51687;52.160;5.298;2023-02-01T06:23:27;11.40;56.30
43995;DHT22;51687;52.160;5.298;2023-02-01T06:26:05;11.40;56.50
43995;DHT22;51687;52.160;5.298;2023-02-01T06:28:34;11.50;56.40
43995;DHT22;51687;52.160;5.298;2023-02-01T06:31:07;11.40;56.00
43995;DHT22;51687;52.160;5.298;2023-02-01T06:33:35;11.30;56.10
43995;DHT22;51687;52.160;5.298;2023-02-01T06:36:05;11.30;56.40
43995;DHT22;51687;52.160;5.298;2023-02-01T06:38:33;11.40;56.40
43995;DHT22;51687;52.160;5.298;2023-02-01T06:41:01;11.30;56.40
43995;DHT22;51687;52.160;5.298;2023-02-01T06:43:29;11.40;56.40
43995;DHT22;51687;52.160;5.298;2023-02-01T06:46:06;11.40;56.40
43995;DHT22;51687;52.160;5.298;2023-02-01T06:48:34;11.30;56.10
43995;DHT22;51687;52.160;5.298;2023-02-01T06:51:01;11.30;56.30
43995;DHT22;51687;52.160;5.298;2023-02-01T06:53:28;11.20;56.10
43995;DHT22;51687;52.160;5.298;2023-02-01T06:55:58;11.10;56.70
43995;DHT22;51687;52.160;5.298;2023-02-01T06:58:32;11.10;56.80
43995;DHT22;51687;52.160;5.298;2023-02-01T07:01:05;11.10;56.70
43995;DHT22;51687;52.160;5.298;2023-02-01T07:03:33;11.10;57.00
43995;DHT22;51687;52.160;5.298;2023-02-01T07:05:59;11.20;56.80
43995;DHT22;51687;52.160;5.298;2023-02-01T07:08:31;11.20;57.10
43995;DHT22;51687;52.160;5.298;2023-02-01T07:11:02;11.30;57.20
43995;DHT22;51687;52.160;5.298;2023-02-01T07:13:29;11.30;56.80
43995;DHT22;51687;52.160;5.298;2023-02-01T07:15:58;11.30;56.90
43995;DHT22;51687;52.160;5.298;2023-02-01T07:18:28;11.30;56.80
43995;DHT22;51687;52.160;5.298;2023-02-01T07:20:55;11.30;57.00
43995;DHT22;51687;52.160;5.298;2023-02-01T07:23:22;11.30;57.10
43995;DHT22;51687;52.160;5.298;2023-02-01T07:25:53;11.30;57.10
43995;DHT22;51687;52.160;5.298;2023-02-01T07:28:20;11.30;57.50
43995;DHT22;51687;52.160;5.298;2023-02-01T07:30:47;11.40;57.50
43995;DHT22;51687;52.160;5.298;2023-02-01T07:33:22;11.40;58.70
43995;DHT22;51687;52.160;5.298;2023-02-01T07:35:53;11.60;57.80
43995;DHT22;51687;52.160;5.298;2023-02-01T07:38:20;11.80;59.00
43995;DHT22;51687;52.160;5.298;2023-02-01T07:40:48;11.90;56.80
43995;DHT22;51687;52.160;5.298;2023-02-01T07:50:36;11.90;57.00
43995;DHT22;51687;52.160;5.298;2023-02-01T07:53:03;12.20;56.20
43995;DHT22;51687;52.160;5.298;2023-02-01T07:55:29;12.20;54.80
43995;DHT22;51687;52.160;5.298;2023-02-01T07:57:57;12.30;55.00
43995;DHT22;51687;52.160;5.298;2023-02-01T08:00:25;12.30;54.50
43995;DHT22;51687;52.160;5.298;2023-02-01T08:03:11;12.40;54.50
43995;DHT22;51687;52.160;5.298;2023-02-01T08:05:37;12.30;54.40
43995;DHT22;51687;52.160;5.298;2023-02-01T08:08:05;12.40;54.40
43995;DHT22;51687;52.160;5.298;2023-02-01T08:10:32;12.30;54.20
43995;DHT22;51687;52.160;5.298;2023-02-01T08:13:00;12.40;54.90
43995;DHT22;51687;52.160;5.298;2023-02-01T08:15:28;12.50;55.80
43995;DHT22;51687;52.160;5.298;2023-02-01T08:20:24;12.50;54.50
43995;DHT22;51687;52.160;5.298;2023-02-01T08:22:53;12.60;53.80
43995;DHT22;51687;52.160;5.298;2023-02-01T08:25:20;12.70;53.70
43995;DHT22;51687;52.160;5.298;2023-02-01T08:27:47;12.70;54.50
43995;DHT22;51687;52.160;5.298;2023-02-01T08:30:14;12.70;54.20
43995;DHT22;51687;52.160;5.298;2023-02-01T08:32:41;12.80;53.90
43995;DHT22;51687;52.160;5.298;2023-02-01T08:35:08;12.80;54.10
43995;DHT22;51687;52.160;5.298;2023-02-01T08:37:35;12.90;53.90
43995;DHT22;51687;52.160;5.298;2023-02-01T08:40:03;12.70;52.60
43995;DHT22;51687;52.160;5.298;2023-02-01T08:42:33;12.60;53.20
43995;DHT22;51687;52.160;5.298;2023-02-01T08:45:26;12.50;53.10
43995;DHT22;51687;52.160;5.298;2023-02-01T08:47:55;12.40;53.40
43995;DHT22;51687;52.160;5.298;2023-02-01T08:50:23;12.20;54.20
43995;DHT22;51687;52.160;5.298;2023-02-01T08:52:52;12.20;54.40
43995;DHT22;51687;52.160;5.298;2023-02-01T08:55:20;12.20;54.60
43995;DHT22;51687;52.160;5.298;2023-02-01T08:57:46;12.30;55.00
43995;DHT22;51687;52.160;5.298;2023-02-01T09:00:15;12.30;55.10
43995;DHT22;51687;52.160;5.298;2023-02-01T09:02:43;12.40;55.10
43995;DHT22;51687;52.160;5.298;2023-02-01T09:05:10;12.40;54.90
43995;DHT22;51687;52.160;5.298;2023-02-01T09:07:38;12.40;55.20
43995;DHT22;51687;52.160;5.298;2023-02-01T09:10:05;12.40;55.20
43995;DHT22;51687;52.160;5.298;2023-02-01T09:12:33;12.30;54.50
43995;DHT22;51687;52.160;5.298;2023-02-01T09:15:00;12.20;55.50
43995;DHT22;51687;52.160;5.298;2023-02-01T09:17:28;12.20;55.70
43995;DHT22;51687;52.160;5.298;2023-02-01T09:19:59;12.10;54.60
43995;DHT22;51687;52.160;5.298;2023-02-01T09:22:26;12.00;56.00
43995;DHT22;51687;52.160;5.298;2023-02-01T09:24:53;12.00;55.60
43995;DHT22;51687;52.160;5.298;2023-02-01T09:27:21;11.90;55.80
43995;DHT22;51687;52.160;5.298;2023-02-01T09:29:48;11.90;57.20
43995;DHT22;51687;52.160;5.298;2023-02-01T09:32:23;12.10;56.60
43995;DHT22;51687;52.160;5.298;2023-02-01T09:34:51;12.10;55.50
43995;DHT22;51687;52.160;5.298;2023-02-01T09:37:19;12.10;55.70
43995;DHT22;51687;52.160;5.298;2023-02-01T09:39:46;12.10;56.00
43995;DHT22;51687;52.160;5.298;2023-02-01T09:45:32;12.10;54.90
43995;DHT22;51687;52.160;5.298;2023-02-01T09:48:08;12.10;54.90
43995;DHT22;51687;52.160;5.298;2023-02-01T09:50:38;12.10;56.50
43995;DHT22;51687;52.160;5.298;2023-02-01T09:55:49;12.20;55.30
43995;DHT22;51687;52.160;5.298;2023-02-01T10:00:54;12.30;55.00
43995;DHT22;51687;52.160;5.298;2023-02-01T10:03:24;12.20;54.90
43995;DHT22;51687;52.160;5.298;2023-02-01T10:12:00;12.10;56.50
43995;DHT22;51687;52.160;5.298;2023-02-01T10:22:40;11.80;57.80
43995;DHT22;51687;52.160;5.298;2023-02-01T10:25:54;11.70;58.60
43995;DHT22;51687;52.160;5.298;2023-02-01T10:28:22;11.60;59.20
43995;DHT22;51687;52.160;5.298;2023-02-01T10:30:55;11.40;59.70
43995;DHT22;51687;52.160;5.298;2023-02-01T10:33:30;11.40;60.20
43995;DHT22;51687;52.160;5.298;2023-02-01T10:36:05;11.30;60.10
43995;DHT22;51687;52.160;5.298;2023-02-01T10:38:33;11.30;60.00
43995;DHT22;51687;52.160;5.298;2023-02-01T10:41:17;11.20;59.80
43995;DHT22;51687;52.160;5.298;2023-02-01T10:43:51;11.30;59.80
43995;DHT22;51687;52.160;5.298;2023-02-01T10:46:23;11.20;59.00
43995;DHT22;51687;52.160;5.298;2023-02-01T10:48:55;11.20;59.60
43995;DHT22;51687;52.160;5.298;2023-02-01T10:51:26;11.20;59.30
43995;DHT22;51687;52.160;5.298;2023-02-01T10:53:55;11.10;60.00
43995;DHT22;51687;52.160;5.298;2023-02-01T10:56:26;11.20;59.20
43995;DHT22;51687;52.160;5.298;2023-02-01T10:59:05;11.20;58.90
43995;DHT22;51687;52.160;5.298;2023-02-01T11:04:01;11.20;59.00
43995;DHT22;51687;52.160;5.298;2023-02-01T11:06:44;11.30;58.30
43995;DHT22;51687;52.160;5.298;2023-02-01T11:14:17;11.50;59.70
43995;DHT22;51687;52.160;5.298;2023-02-01T11:16:54;11.60;59.10
43995;DHT22;51687;52.160;5.298;2023-02-01T11:19:21;11.70;60.00
43995;DHT22;51687;52.160;5.298;2023-02-01T11:21:51;11.70;59.30
43995;DHT22;51687;52.160;5.298;2023-02-01T11:24:47;11.70;60.00
43995;DHT22;51687;52.160;5.298;2023-02-01T11:27:17;11.70;60.80
43995;DHT22;51687;52.160;5.298;2023-02-01T11:29:57;11.70;58.30
43995;DHT22;51687;52.160;5.298;2023-02-01T11:32:26;11.70;58.90
43995;DHT22;51687;52.160;5.298;2023-02-01T11:35:02;11.70;58.40
43995;DHT22;51687;52.160;5.298;2023-02-01T11:37:34;11.60;58.50
43995;DHT22;51687;52.160;5.298;2023-02-01T11:48:24;11.80;57.50
43995;DHT22;51687;52.160;5.298;2023-02-01T11:54:02;11.90;57.50
43995;DHT22;51687;52.160;5.298;2023-02-01T11:56:48;11.90;58.20
43995;DHT22;51687;52.160;5.298;2023-02-01T12:03:07;11.90;57.20
43995;DHT22;51687;52.160;5.298;2023-02-01T12:06:08;11.80;58.10
43995;DHT22;51687;52.160;5.298;2023-02-01T12:09:04;11.80;57.50
43995;DHT22;51687;52.160;5.298;2023-02-01T12:14:27;11.80;57.70
43995;DHT22;51687;52.160;5.298;2023-02-01T12:19:57;11.80;56.50
43995;DHT22;51687;52.160;5.298;2023-02-01T12:28:33;11.70;57.70
43995;DHT22;51687;52.160;5.298;2023-02-01T12:34:17;11.70;57.30
43995;DHT22;51687;52.160;5.298;2023-02-01T12:37:29;11.70;57.50
43995;DHT22;51687;52.160;5.298;2023-02-01T12:40:58;11.70;58.10
43995;DHT22;51687;52.160;5.298;2023-02-01T12:43:19;11.70;57.60
43995;DHT22;51687;52.160;5.298;2023-02-01T12:48:32;11.60;57.60
43995;DHT22;51687;52.160;5.298;2023-02-01T12:51:04;11.60;58.20
43995;DHT22;51687;52.160;5.298;2023-02-01T12:53:50;11.60;58.30
43995;DHT22;51687;52.160;5.298;2023-02-01T12:56:29;11.60;58.10
43995;DHT22;51687;52.160;5.298;2023-02-01T12:59:01;11.60;58.20
43995;DHT22;51687;52.160;5.298;2023-02-01T13:05:02;11.70;58.00
43995;DHT22;51687;52.160;5.298;2023-02-01T13:07:36;11.80;58.10
43995;DHT22;51687;52.160;5.298;2023-02-01T13:10:36;11.80;57.80
43995;DHT22;51687;52.160;5.298;2023-02-01T13:15:46;11.90;58.00
43995;DHT22;51687;52.160;5.298;2023-02-01T13:18:18;11.90;57.70
43995;DHT22;51687;52.160;5.298;2023-02-01T13:21:02;11.90;57.40
43995;DHT22;51687;52.160;5.298;2023-02-01T13:23:38;11.90;58.00
43995;DHT22;51687;52.160;5.298;2023-02-01T13:26:06;11.80;57.60
43995;DHT22;51687;52.160;5.298;2023-02-01T13:28:50;11.80;57.90
43995;DHT22;51687;52.160;5.298;2023-02-01T13:31:27;11.90;58.00
43995;DHT22;51687;52.160;5.298;2023-02-01T13:34:28;11.90;57.90
43995;DHT22;51687;52.160;5.298;2023-02-01T13:37:10;12.00;57.80
43995;DHT22;51687;52.160;5.298;2023-02-01T13:45:17;12.10;57.30
43995;DHT22;51687;52.160;5.298;2023-02-01T13:47:50;12.10;57.50
43995;DHT22;51687;52.160;5.298;2023-02-01T13:50:27;12.00;57.90
43995;DHT22;51687;52.160;5.298;2023-02-01T13:52:57;12.00;58.00
43995;DHT22;51687;52.160;5.298;2023-02-01T13:55:28;12.00;58.10
43995;DHT22;51687;52.160;5.298;2023-02-01T14:00:39;12.10;57.90
43995;DHT22;51687;52.160;5.298;2023-02-01T14:13:33;12.00;58.60
43995;DHT22;51687;52.160;5.298;2023-02-01T14:21:33;12.20;58.00
43995;DHT22;51687;52.160;5.298;2023-02-01T14:26:48;12.20;58.10
43995;DHT22;51687;52.160;5.298;2023-02-01T14:31:54;12.20;58.50
43995;DHT22;51687;52.160;5.298;2023-02-01T14:37:24;12.20;58.10
43995;DHT22;51687;52.160;5.298;2023-02-01T15:01:21;12.20;58.80
43995;DHT22;51687;52.160;5.298;2023-02-01T15:04:10;12.10;59.30
43995;DHT22;51687;52.160;5.298;2023-02-01T15:06:38;12.00;59.40
43995;DHT22;51687;52.160;5.298;2023-02-01T15:14:37;11.90;60.10
43995;DHT22;51687;52.160;5.298;2023-02-01T15:17:24;12.00;60.00
43995;DHT22;51687;52.160;5.298;2023-02-01T15:22:34;12.10;59.30
43995;DHT22;51687;52.160;5.298;2023-02-01T15:25:02;12.00;59.30
43995;DHT22;51687;52.160;5.298;2023-02-01T15:27:30;12.00;59.60
43995;DHT22;51687;52.160;5.298;2023-02-01T15:30:12;12.00;59.60
43995;DHT22;51687;52.160;5.298;2023-02-01T15:32:42;12.10;59.60
43995;DHT22;51687;52.160;5.298;2023-02-01T15:35:31;12.10;59.20
43995;DHT22;51687;52.160;5.298;2023-02-01T15:41:06;12.20;59.90
43995;DHT22;51687;52.160;5.298;2023-02-01T15:46:41;12.20;59.30
43995;DHT22;51687;52.160;5.298;2023-02-01T15:49:25;12.20;59.30
43995;DHT22;51687;52.160;5.298;2023-02-01T15:51:53;12.20;59.20
43995;DHT22;51687;52.160;5.298;2023-02-01T15:54:32;12.20;58.80
43995;DHT22;51687;52.160;5.298;2023-02-01T15:57:03;12.20;58.80
43995;DHT22;51687;52.160;5.298;2023-02-01T15:59:43;12.20;58.90
43995;DHT22;51687;52.160;5.298;2023-02-01T16:02:37;12.20;59.00
43995;DHT22;51687;52.160;5.298;2023-02-01T16:05:38;12.20;58.80
43995;DHT22;51687;52.160;5.298;2023-02-01T16:08:13;12.10;59.10
43995;DHT22;51687;52.160;5.298;2023-02-01T16:10:43;12.00;59.40
43995;DHT22;51687;52.160;5.298;2023-02-01T16:13:10;12.00;59.50
43995;DHT22;51687;52.160;5.298;2023-02-01T16:15:37;11.90;59.80
43995;DHT22;51687;52.160;5.298;2023-02-01T16:18:04;11.90;60.00
43995;DHT22;51687;52.160;5.298;2023-02-01T16:20:31;11.80;60.10
43995;DHT22;51687;52.160;5.298;2023-02-01T16:22:59;11.80;60.40
43995;DHT22;51687;52.160;5.298;2023-02-01T16:25:26;11.70;60.40
43995;DHT22;51687;52.160;5.298;2023-02-01T16:27:53;11.70;60.50
43995;DHT22;51687;52.160;5.298;2023-02-01T16:30:20;11.70;60.60
43995;DHT22;51687;52.160;5.298;2023-02-01T16:32:52;11.70;60.60
43995;DHT22;51687;52.160;5.298;2023-02-01T16:35:28;11.60;60.80
43995;DHT22;51687;52.160;5.298;2023-02-01T16:37:58;11.60;61.10
43995;DHT22;51687;52.160;5.298;2023-02-01T16:40:25;11.50;61.50
43995;DHT22;51687;52.160;5.298;2023-02-01T16:42:53;11.60;61.50
43995;DHT22;51687;52.160;5.298;2023-02-01T16:45:21;11.70;61.30
43995;DHT22;51687;52.160;5.298;2023-02-01T16:47:52;11.70;61.20
43995;DHT22;51687;52.160;5.298;2023-02-01T16:50:22;11.80;60.90
43995;DHT22;51687;52.160;5.298;2023-02-01T16:52:51;11.90;60.90
43995;DHT22;51687;52.160;5.298;2023-02-01T16:55:20;12.00;60.80
43995;DHT22;51687;52.160;5.298;2023-02-01T16:57:48;12.00;60.70
43995;DHT22;51687;52.160;5.298;2023-02-01T17:00:15;12.10;60.40
43995;DHT22;51687;52.160;5.298;2023-02-01T17:02:52;12.20;60.40
43995;DHT22;51687;52.160;5.298;2023-02-01T17:05:19;12.20;60.40
43995;DHT22;51687;52.160;5.298;2023-02-01T17:07:47;12.30;60.20
43995;DHT22;51687;52.160;5.298;2023-02-01T17:10:24;12.30;60.10
43995;DHT22;51687;52.160;5.298;2023-02-01T17:15:31;12.40;60.20
43995;DHT22;51687;52.160;5.298;2023-02-01T17:18:01;12.50;59.70
43995;DHT22;51687;52.160;5.298;2023-02-01T17:20:30;12.50;59.80
43995;DHT22;51687;52.160;5.298;2023-02-01T17:22:59;12.50;60.00
43995;DHT22;51687;52.160;5.298;2023-02-01T17:25:29;12.60;59.80
43995;DHT22;51687;52.160;5.298;2023-02-01T17:27:56;12.60;59.30
43995;DHT22;51687;52.160;5.298;2023-02-01T17:30:22;12.60;59.40
43995;DHT22;51687;52.160;5.298;2023-02-01T17:32:49;12.60;59.30
43995;DHT22;51687;52.160;5.298;2023-02-01T17:35:20;12.50;59.40
43995;DHT22;51687;52.160;5.298;2023-02-01T17:37:49;12.50;59.40
43995;DHT22;51687;52.160;5.298;2023-02-01T17:40:16;12.40;60.10
43995;DHT22;51687;52.160;5.298;2023-02-01T17:42:43;12.40;60.30
43995;DHT22;51687;52.160;5.298;2023-02-01T17:45:34;12.40;59.70
43995;DHT22;51687;52.160;5.298;2023-02-01T17:48:07;12.40;60.00
43995;DHT22;51687;52.160;5.298;2023-02-01T17:50:35;12.40;60.20
43995;DHT22;51687;52.160;5.298;2023-02-01T17:53:03;12.40;59.90
43995;DHT22;51687;52.160;5.298;2023-02-01T21:08:33;12.40;60.20
43995;DHT22;51687;52.160;5.298;2023-02-01T21:11:03;12.70;60.70
43995;DHT22;51687;52.160;5.298;2023-02-01T21:13:32;12.70;60.30
43995;DHT22;51687;52.160;5.298;2023-02-01T21:16:03;12.60;60.60
43995;DHT22;51687;52.160;5.298;2023-02-01T21:18:32;12.60;60.70
43995;DHT22;51687;52.160;5.298;2023-02-01T21:21:07;12.60;61.10
43995;DHT22;51687;52.160;5.298;2023-02-01T21:23:34;12.60;60.80
43995;DHT22;51687;52.160;5.298;2023-02-01T21:26:15;12.70;60.70
43995;DHT22;51687;52.160;5.298;2023-02-01T21:28:43;12.70;60.50
43995;DHT22;51687;52.160;5.298;2023-02-01T21:31:10;12.70;60.70
43995;DHT22;51687;52.160;5.298;2023-02-01T21:33:37;12.70;60.80
43995;DHT22;51687;52.160;5.298;2023-02-01T21:36:05;12.70;60.90
43995;DHT22;51687;52.160;5.298;2023-02-01T21:38:33;12.70;60.60
43995;DHT22;51687;52.160;5.298;2023-02-01T21:41:00;12.80;60.50
43995;DHT22;51687;52.160;5.298;2023-02-01T21:43:45;12.80;60.70
43995;DHT22;51687;52.160;5.298;2023-02-01T21:46:11;12.90;60.60
43995;DHT22;51687;52.160;5.298;2023-02-01T21:48:38;12.90;60.30
43995;DHT22;51687;52.160;5.298;2023-02-01T21:51:26;12.80;60.20
43995;DHT22;51687;52.160;5.298;2023-02-01T21:53:53;12.90;60.30
43995;DHT22;51687;52.160;5.298;2023-02-01T21:56:20;12.90;60.40
43995;DHT22;51687;52.160;5.298;2023-02-01T21:58:47;12.90;60.50
43995;DHT22;51687;52.160;5.298;2023-02-01T22:01:14;12.90;60.70